sensor_id;sensor_type;location;lat;lon;timestamp;P1;durP1;ratioP1;P2;durP2;ratioP2
26690;SDS011;14307;51.718;8.938;2023-09-30T00:00:09;21.85;;;12.50;;
26690;SDS011;14307;51.718;8.938;2023-09-30T00:02:37;28.33;;;12.25;;
26690;SDS011;14307;51.718;8.938;2023-09-30T00:05:04;26.80;;;12.13;;
26690;SDS011;14307;51.718;8.938;2023-09-30T00:07:32;17.67;;;9.85;;
26690;SDS011;14307;51.718;8.938;2023-09-30T00:10:00;24.48;;;10.27;;
26690;SDS011;14307;51.718;8.938;2023-09-30T00:12:27;21.38;;;10.43;;
26690;SDS011;14307;51.718;8.938;2023-09-30T00:14:54;19.25;;;11.70;;
26690;SDS011;14307;51.718;8.938;2023-09-30T00:17:21;25.08;;;11.77;;
26690;SDS011;14307;51.718;8.938;2023-09-30T00:19:48;16.02;;;9.65;;
26690;SDS011;14307;51.718;8.938;2023-09-30T00:22:15;24.52;;;10.52;;
26690;SDS011;14307;51.718;8.938;2023-09-30T00:24:41;18.85;;;10.57;;
26690;SDS011;14307;51.718;8.938;2023-09-30T00:27:09;18.92;;;10.80;;
26690;SDS011;14307;51.718;8.938;2023-09-30T00:29:36;22.65;;;9.82;;
26690;SDS011;14307;51.718;8.938;2023-09-30T00:32:03;20.80;;;10.13;;
26690;SDS011;14307;51.718;8.938;2023-09-30T00:34:33;20.02;;;10.27;;
26690;SDS011;14307;51.718;8.938;2023-09-30T00:37:01;29.00;;;10.75;;
26690;SDS011;14307;51.718;8.938;2023-09-30T00:39:30;21.52;;;10.90;;
26690;SDS011;14307;51.718;8.938;2023-09-30T00:41:59;22.05;;;10.20;;
26690;SDS011;14307;51.718;8.938;2023-09-30T00:44:27;23.10;;;11.10;;
26690;SDS011;14307;51.718;8.938;2023-09-30T00:46:54;22.40;;;10.93;;
26690;SDS011;14307;51.718;8.938;2023-09-30T00:49:25;25.73;;;12.48;;
26690;SDS011;14307;51.718;8.938;2023-09-30T00:51:52;23.10;;;11.55;;
26690;SDS011;14307;51.718;8.938;2023-09-30T00:54:21;19.30;;;11.93;;
26690;SDS011;14307;51.718;8.938;2023-09-30T00:56:50;22.90;;;13.05;;
26690;SDS011;14307;51.718;8.938;2023-09-30T00:59:21;21.67;;;13.75;;
26690;SDS011;14307;51.718;8.938;2023-09-30T01:01:49;23.60;;;14.52;;
26690;SDS011;14307;51.718;8.938;2023-09-30T01:04:16;26.67;;;14.02;;
26690;SDS011;14307;51.718;8.938;2023-09-30T01:06:44;24.25;;;13.73;;
26690;SDS011;14307;51.718;8.938;2023-09-30T01:09:11;28.80;;;15.32;;
26690;SDS011;14307;51.718;8.938;2023-09-30T01:11:39;27.92;;;15.93;;
26690;SDS011;14307;51.718;8.938;2023-09-30T01:14:26;29.60;;;16.05;;
26690;SDS011;14307;51.718;8.938;2023-09-30T01:16:54;25.30;;;16.05;;
26690;SDS011;14307;51.718;8.938;2023-09-30T01:19:21;30.95;;;16.00;;
26690;SDS011;14307;51.718;8.938;2023-09-30T01:21:55;33.53;;;16.38;;
26690;SDS011;14307;51.718;8.938;2023-09-30T01:24:28;32.45;;;15.95;;
26690;SDS011;14307;51.718;8.938;2023-09-30T01:26:56;32.30;;;17.60;;
26690;SDS011;14307;51.718;8.938;2023-09-30T01:29:24;33.42;;;18.27;;
26690;SDS011;14307;51.718;8.938;2023-09-30T01:31:52;30.67;;;17.40;;
26690;SDS011;14307;51.718;8.938;2023-09-30T01:34:21;33.17;;;16.55;;
26690;SDS011;14307;51.718;8.938;2023-09-30T01:36:48;27.08;;;17.48;;
26690;SDS011;14307;51.718;8.938;2023-09-30T01:39:16;35.47;;;17.30;;
26690;SDS011;14307;51.718;8.938;2023-09-30T01:41:43;34.90;;;17.60;;
26690;SDS011;14307;51.718;8.938;2023-09-30T01:44:11;30.75;;;17.05;;
26690;SDS011;14307;51.718;8.938;2023-09-30T01:46:38;33.25;;;19.58;;
26690;SDS011;14307;51.718;8.938;2023-09-30T01:49:05;39.45;;;18.70;;
26690;SDS011;14307;51.718;8.938;2023-09-30T01:51:32;41.15;;;19.00;;
26690;SDS011;14307;51.718;8.938;2023-09-30T01:53:59;43.00;;;19.15;;
26690;SDS011;14307;51.718;8.938;2023-09-30T01:56:26;41.15;;;20.48;;
26690;SDS011;14307;51.718;8.938;2023-09-30T01:58:53;37.75;;;20.23;;
26690;SDS011;14307;51.718;8.938;2023-09-30T02:01:20;42.75;;;20.88;;
26690;SDS011;14307;51.718;8.938;2023-09-30T02:03:49;36.42;;;19.88;;
26690;SDS011;14307;51.718;8.938;2023-09-30T02:06:16;33.95;;;18.80;;
26690;SDS011;14307;51.718;8.938;2023-09-30T02:08:43;26.58;;;18.77;;
26690;SDS011;14307;51.718;8.938;2023-09-30T02:11:11;35.42;;;20.50;;
26690;SDS011;14307;51.718;8.938;2023-09-30T02:13:41;31.75;;;18.67;;
26690;SDS011;14307;51.718;8.938;2023-09-30T02:16:12;29.52;;;19.55;;
26690;SDS011;14307;51.718;8.938;2023-09-30T02:18:41;35.10;;;19.30;;
26690;SDS011;14307;51.718;8.938;2023-09-30T02:21:11;32.00;;;18.30;;
26690;SDS011;14307;51.718;8.938;2023-09-30T02:23:38;32.05;;;19.05;;
26690;SDS011;14307;51.718;8.938;2023-09-30T02:26:05;33.55;;;18.13;;
26690;SDS011;14307;51.718;8.938;2023-09-30T02:28:32;34.65;;;18.48;;
26690;SDS011;14307;51.718;8.938;2023-09-30T02:31:00;39.08;;;17.58;;
26690;SDS011;14307;51.718;8.938;2023-09-30T02:33:27;26.30;;;16.33;;
26690;SDS011;14307;51.718;8.938;2023-09-30T02:35:57;32.20;;;15.38;;
26690;SDS011;14307;51.718;8.938;2023-09-30T02:38:23;32.53;;;16.25;;
26690;SDS011;14307;51.718;8.938;2023-09-30T02:40:51;35.85;;;17.10;;
26690;SDS011;14307;51.718;8.938;2023-09-30T02:43:18;24.00;;;16.60;;
26690;SDS011;14307;51.718;8.938;2023-09-30T02:45:46;30.98;;;17.25;;
26690;SDS011;14307;51.718;8.938;2023-09-30T02:48:15;32.72;;;16.77;;
26690;SDS011;14307;51.718;8.938;2023-09-30T02:50:42;28.80;;;16.85;;
26690;SDS011;14307;51.718;8.938;2023-09-30T02:53:12;31.42;;;17.38;;
26690;SDS011;14307;51.718;8.938;2023-09-30T02:55:40;32.78;;;17.90;;
26690;SDS011;14307;51.718;8.938;2023-09-30T02:58:09;35.13;;;17.70;;
26690;SDS011;14307;51.718;8.938;2023-09-30T03:00:37;34.65;;;18.55;;
26690;SDS011;14307;51.718;8.938;2023-09-30T03:03:04;31.15;;;18.48;;
26690;SDS011;14307;51.718;8.938;2023-09-30T03:05:31;37.92;;;18.88;;
26690;SDS011;14307;51.718;8.938;2023-09-30T03:08:00;31.48;;;18.70;;
26690;SDS011;14307;51.718;8.938;2023-09-30T03:10:27;26.38;;;19.35;;
26690;SDS011;14307;51.718;8.938;2023-09-30T03:12:55;33.03;;;18.42;;
26690;SDS011;14307;51.718;8.938;2023-09-30T03:15:28;31.40;;;19.15;;
26690;SDS011;14307;51.718;8.938;2023-09-30T03:17:57;35.25;;;18.30;;
26690;SDS011;14307;51.718;8.938;2023-09-30T03:20:26;35.30;;;18.42;;
26690;SDS011;14307;51.718;8.938;2023-09-30T03:22:53;39.17;;;20.30;;
26690;SDS011;14307;51.718;8.938;2023-09-30T03:25:20;41.50;;;19.63;;
26690;SDS011;14307;51.718;8.938;2023-09-30T03:27:47;33.83;;;18.95;;
26690;SDS011;14307;51.718;8.938;2023-09-30T03:30:15;43.65;;;21.92;;
26690;SDS011;14307;51.718;8.938;2023-09-30T03:32:43;38.53;;;20.88;;
26690;SDS011;14307;51.718;8.938;2023-09-30T03:35:10;33.65;;;20.55;;
26690;SDS011;14307;51.718;8.938;2023-09-30T03:37:44;56.60;;;24.83;;
26690;SDS011;14307;51.718;8.938;2023-09-30T03:40:14;41.42;;;23.45;;
26690;SDS011;14307;51.718;8.938;2023-09-30T03:42:46;42.08;;;25.35;;
26690;SDS011;14307;51.718;8.938;2023-09-30T03:45:23;51.40;;;23.77;;
26690;SDS011;14307;51.718;8.938;2023-09-30T03:47:50;57.20;;;23.90;;
26690;SDS011;14307;51.718;8.938;2023-09-30T03:50:18;45.20;;;23.75;;
26690;SDS011;14307;51.718;8.938;2023-09-30T03:52:45;44.70;;;22.50;;
26690;SDS011;14307;51.718;8.938;2023-09-30T03:55:13;43.85;;;22.73;;
26690;SDS011;14307;51.718;8.938;2023-09-30T03:57:42;39.42;;;20.40;;
26690;SDS011;14307;51.718;8.938;2023-09-30T04:00:09;36.08;;;21.33;;
26690;SDS011;14307;51.718;8.938;2023-09-30T04:02:42;45.22;;;21.98;;
26690;SDS011;14307;51.718;8.938;2023-09-30T04:05:10;42.28;;;21.65;;
26690;SDS011;14307;51.718;8.938;2023-09-30T04:07:39;36.83;;;21.17;;
26690;SDS011;14307;51.718;8.938;2023-09-30T04:10:09;42.35;;;21.25;;
26690;SDS011;14307;51.718;8.938;2023-09-30T04:12:36;39.33;;;19.67;;
26690;SDS011;14307;51.718;8.938;2023-09-30T04:15:03;32.67;;;19.77;;
26690;SDS011;14307;51.718;8.938;2023-09-30T04:17:30;30.85;;;19.92;;
26690;SDS011;14307;51.718;8.938;2023-09-30T04:19:57;40.17;;;19.95;;
26690;SDS011;14307;51.718;8.938;2023-09-30T04:22:25;37.20;;;20.75;;
26690;SDS011;14307;51.718;8.938;2023-09-30T04:24:54;33.70;;;20.40;;
26690;SDS011;14307;51.718;8.938;2023-09-30T04:27:21;38.47;;;21.33;;
26690;SDS011;14307;51.718;8.938;2023-09-30T04:29:48;43.83;;;22.67;;
26690;SDS011;14307;51.718;8.938;2023-09-30T04:32:16;42.28;;;22.55;;
26690;SDS011;14307;51.718;8.938;2023-09-30T04:34:43;37.63;;;22.55;;
26690;SDS011;14307;51.718;8.938;2023-09-30T04:37:15;40.47;;;21.98;;
26690;SDS011;14307;51.718;8.938;2023-09-30T04:39:42;42.75;;;24.10;;
26690;SDS011;14307;51.718;8.938;2023-09-30T04:42:10;41.42;;;23.30;;
26690;SDS011;14307;51.718;8.938;2023-09-30T04:44:38;50.65;;;24.63;;
26690;SDS011;14307;51.718;8.938;2023-09-30T04:47:05;42.72;;;23.63;;
26690;SDS011;14307;51.718;8.938;2023-09-30T04:49:32;46.05;;;24.40;;
26690;SDS011;14307;51.718;8.938;2023-09-30T04:51:59;39.97;;;22.55;;
26690;SDS011;14307;51.718;8.938;2023-09-30T04:54:26;42.75;;;23.60;;
26690;SDS011;14307;51.718;8.938;2023-09-30T04:56:56;44.72;;;24.77;;
26690;SDS011;14307;51.718;8.938;2023-09-30T04:59:23;42.47;;;23.90;;
26690;SDS011;14307;51.718;8.938;2023-09-30T05:01:51;48.53;;;24.80;;
26690;SDS011;14307;51.718;8.938;2023-09-30T05:04:18;42.80;;;23.63;;
26690;SDS011;14307;51.718;8.938;2023-09-30T05:06:45;43.65;;;25.50;;
26690;SDS011;14307;51.718;8.938;2023-09-30T05:09:12;46.17;;;24.52;;
26690;SDS011;14307;51.718;8.938;2023-09-30T05:11:39;36.40;;;23.55;;
26690;SDS011;14307;51.718;8.938;2023-09-30T05:14:05;44.53;;;24.02;;
26690;SDS011;14307;51.718;8.938;2023-09-30T05:16:32;42.92;;;25.58;;
26690;SDS011;14307;51.718;8.938;2023-09-30T05:18:59;37.90;;;24.23;;
26690;SDS011;14307;51.718;8.938;2023-09-30T05:21:26;46.33;;;24.20;;
26690;SDS011;14307;51.718;8.938;2023-09-30T05:23:53;40.35;;;24.35;;
26690;SDS011;14307;51.718;8.938;2023-09-30T05:26:20;45.13;;;22.85;;
26690;SDS011;14307;51.718;8.938;2023-09-30T05:28:47;42.92;;;23.20;;
26690;SDS011;14307;51.718;8.938;2023-09-30T05:31:14;43.25;;;22.88;;
26690;SDS011;14307;51.718;8.938;2023-09-30T05:33:41;46.10;;;22.40;;
26690;SDS011;14307;51.718;8.938;2023-09-30T05:36:08;41.60;;;22.58;;
26690;SDS011;14307;51.718;8.938;2023-09-30T05:38:35;38.88;;;23.33;;
26690;SDS011;14307;51.718;8.938;2023-09-30T05:41:02;41.85;;;22.15;;
26690;SDS011;14307;51.718;8.938;2023-09-30T05:43:28;42.13;;;22.63;;
26690;SDS011;14307;51.718;8.938;2023-09-30T05:45:56;50.00;;;22.60;;
26690;SDS011;14307;51.718;8.938;2023-09-30T05:48:27;45.80;;;22.77;;
26690;SDS011;14307;51.718;8.938;2023-09-30T05:50:55;47.42;;;23.80;;
26690;SDS011;14307;51.718;8.938;2023-09-30T05:53:21;50.05;;;21.88;;
26690;SDS011;14307;51.718;8.938;2023-09-30T05:55:49;45.95;;;22.85;;
26690;SDS011;14307;51.718;8.938;2023-09-30T05:58:17;39.30;;;21.17;;
26690;SDS011;14307;51.718;8.938;2023-09-30T06:00:44;37.25;;;21.48;;
26690;SDS011;14307;51.718;8.938;2023-09-30T06:03:11;38.60;;;20.30;;
26690;SDS011;14307;51.718;8.938;2023-09-30T06:05:40;43.38;;;21.65;;
26690;SDS011;14307;51.718;8.938;2023-09-30T06:08:08;43.67;;;21.95;;
26690;SDS011;14307;51.718;8.938;2023-09-30T06:10:37;38.70;;;22.42;;
26690;SDS011;14307;51.718;8.938;2023-09-30T06:13:09;30.65;;;20.00;;
26690;SDS011;14307;51.718;8.938;2023-09-30T06:15:40;47.47;;;21.55;;
26690;SDS011;14307;51.718;8.938;2023-09-30T06:18:08;42.05;;;21.70;;
26690;SDS011;14307;51.718;8.938;2023-09-30T06:20:40;30.98;;;20.48;;
26690;SDS011;14307;51.718;8.938;2023-09-30T06:23:07;43.72;;;21.88;;
26690;SDS011;14307;51.718;8.938;2023-09-30T06:25:36;34.45;;;22.13;;
26690;SDS011;14307;51.718;8.938;2023-09-30T06:28:03;40.60;;;21.52;;
26690;SDS011;14307;51.718;8.938;2023-09-30T06:30:30;35.67;;;22.50;;
26690;SDS011;14307;51.718;8.938;2023-09-30T06:33:00;39.05;;;21.05;;
26690;SDS011;14307;51.718;8.938;2023-09-30T06:35:28;36.28;;;21.15;;
26690;SDS011;14307;51.718;8.938;2023-09-30T06:38:03;38.00;;;22.58;;
26690;SDS011;14307;51.718;8.938;2023-09-30T06:40:33;39.85;;;24.58;;
26690;SDS011;14307;51.718;8.938;2023-09-30T06:43:04;45.70;;;24.20;;
26690;SDS011;14307;51.718;8.938;2023-09-30T06:45:31;45.47;;;24.80;;
26690;SDS011;14307;51.718;8.938;2023-09-30T06:47:59;37.17;;;24.23;;
26690;SDS011;14307;51.718;8.938;2023-09-30T06:50:26;38.72;;;23.73;;
26690;SDS011;14307;51.718;8.938;2023-09-30T06:52:53;43.40;;;23.70;;
26690;SDS011;14307;51.718;8.938;2023-09-30T06:55:20;37.70;;;23.23;;
26690;SDS011;14307;51.718;8.938;2023-09-30T06:57:46;37.67;;;21.17;;
26690;SDS011;14307;51.718;8.938;2023-09-30T07:00:14;40.75;;;21.10;;
26690;SDS011;14307;51.718;8.938;2023-09-30T07:02:41;34.22;;;19.80;;
26690;SDS011;14307;51.718;8.938;2023-09-30T07:05:09;29.13;;;18.65;;
26690;SDS011;14307;51.718;8.938;2023-09-30T07:07:38;41.38;;;20.85;;
26690;SDS011;14307;51.718;8.938;2023-09-30T07:10:12;32.37;;;18.67;;
26690;SDS011;14307;51.718;8.938;2023-09-30T07:12:39;23.60;;;16.55;;
26690;SDS011;14307;51.718;8.938;2023-09-30T07:15:07;29.13;;;16.58;;
26690;SDS011;14307;51.718;8.938;2023-09-30T07:17:35;31.17;;;15.40;;
26690;SDS011;14307;51.718;8.938;2023-09-30T07:20:02;36.08;;;15.43;;
26690;SDS011;14307;51.718;8.938;2023-09-30T07:22:31;33.13;;;13.93;;
26690;SDS011;14307;51.718;8.938;2023-09-30T07:25:18;27.67;;;12.27;;
26690;SDS011;14307;51.718;8.938;2023-09-30T07:27:45;36.58;;;13.75;;
26690;SDS011;14307;51.718;8.938;2023-09-30T07:30:13;28.95;;;13.98;;
26690;SDS011;14307;51.718;8.938;2023-09-30T07:32:42;32.25;;;13.82;;
26690;SDS011;14307;51.718;8.938;2023-09-30T07:35:09;27.98;;;14.10;;
26690;SDS011;14307;51.718;8.938;2023-09-30T07:37:37;26.83;;;14.07;;
26690;SDS011;14307;51.718;8.938;2023-09-30T07:40:04;29.35;;;14.82;;
26690;SDS011;14307;51.718;8.938;2023-09-30T07:42:32;30.75;;;13.95;;
26690;SDS011;14307;51.718;8.938;2023-09-30T07:45:00;28.63;;;15.65;;
26690;SDS011;14307;51.718;8.938;2023-09-30T07:47:27;30.83;;;16.08;;
26690;SDS011;14307;51.718;8.938;2023-09-30T07:49:54;35.70;;;16.40;;
26690;SDS011;14307;51.718;8.938;2023-09-30T07:52:20;25.05;;;14.82;;
26690;SDS011;14307;51.718;8.938;2023-09-30T07:54:47;32.65;;;15.40;;
26690;SDS011;14307;51.718;8.938;2023-09-30T07:57:14;25.02;;;15.93;;
26690;SDS011;14307;51.718;8.938;2023-09-30T07:59:41;29.67;;;16.70;;
26690;SDS011;14307;51.718;8.938;2023-09-30T08:02:08;28.92;;;17.30;;
26690;SDS011;14307;51.718;8.938;2023-09-30T08:04:34;35.40;;;17.75;;
26690;SDS011;14307;51.718;8.938;2023-09-30T08:07:02;27.75;;;17.83;;
26690;SDS011;14307;51.718;8.938;2023-09-30T08:09:29;29.70;;;19.30;;
26690;SDS011;14307;51.718;8.938;2023-09-30T08:11:56;29.38;;;19.02;;
26690;SDS011;14307;51.718;8.938;2023-09-30T08:14:23;28.50;;;18.83;;
26690;SDS011;14307;51.718;8.938;2023-09-30T08:16:49;30.17;;;19.08;;
26690;SDS011;14307;51.718;8.938;2023-09-30T08:19:16;27.80;;;19.00;;
26690;SDS011;14307;51.718;8.938;2023-09-30T08:21:43;28.33;;;21.35;;
26690;SDS011;14307;51.718;8.938;2023-09-30T08:24:11;37.20;;;22.58;;
26690;SDS011;14307;51.718;8.938;2023-09-30T08:26:38;35.35;;;22.05;;
26690;SDS011;14307;51.718;8.938;2023-09-30T08:29:05;36.28;;;21.35;;
26690;SDS011;14307;51.718;8.938;2023-09-30T08:31:32;30.58;;;20.02;;
26690;SDS011;14307;51.718;8.938;2023-09-30T08:33:59;37.00;;;21.13;;
26690;SDS011;14307;51.718;8.938;2023-09-30T08:36:30;37.65;;;22.42;;
26690;SDS011;14307;51.718;8.938;2023-09-30T08:38:57;27.67;;;20.88;;
26690;SDS011;14307;51.718;8.938;2023-09-30T08:41:31;36.15;;;21.30;;
26690;SDS011;14307;51.718;8.938;2023-09-30T08:44:00;34.80;;;20.52;;
26690;SDS011;14307;51.718;8.938;2023-09-30T08:46:33;31.55;;;20.77;;
26690;SDS011;14307;51.718;8.938;2023-09-30T08:49:01;31.05;;;21.85;;
26690;SDS011;14307;51.718;8.938;2023-09-30T08:51:30;27.45;;;21.33;;
26690;SDS011;14307;51.718;8.938;2023-09-30T08:53:58;23.92;;;21.45;;
26690;SDS011;14307;51.718;8.938;2023-09-30T08:56:30;27.42;;;22.60;;
26690;SDS011;14307;51.718;8.938;2023-09-30T08:59:01;33.60;;;21.88;;
26690;SDS011;14307;51.718;8.938;2023-09-30T09:01:29;34.63;;;22.80;;
26690;SDS011;14307;51.718;8.938;2023-09-30T09:03:58;29.92;;;21.85;;
26690;SDS011;14307;51.718;8.938;2023-09-30T09:06:25;30.50;;;23.65;;
26690;SDS011;14307;51.718;8.938;2023-09-30T09:08:52;26.70;;;23.80;;
26690;SDS011;14307;51.718;8.938;2023-09-30T09:11:20;27.35;;;24.45;;
26690;SDS011;14307;51.718;8.938;2023-09-30T09:16:23;26.65;;;23.77;;
26690;SDS011;14307;51.718;8.938;2023-09-30T09:18:51;30.05;;;23.58;;
26690;SDS011;14307;51.718;8.938;2023-09-30T09:21:18;27.83;;;24.33;;
26690;SDS011;14307;51.718;8.938;2023-09-30T09:23:47;27.65;;;24.73;;
26690;SDS011;14307;51.718;8.938;2023-09-30T09:26:29;27.13;;;23.55;;
26690;SDS011;14307;51.718;8.938;2023-09-30T09:29:02;27.30;;;24.88;;
26690;SDS011;14307;51.718;8.938;2023-09-30T09:31:35;31.40;;;25.30;;
26690;SDS011;14307;51.718;8.938;2023-09-30T09:34:03;26.52;;;23.88;;
26690;SDS011;14307;51.718;8.938;2023-09-30T09:39:07;26.85;;;24.15;;
26690;SDS011;14307;51.718;8.938;2023-09-30T09:41:48;30.55;;;24.30;;
26690;SDS011;14307;51.718;8.938;2023-09-30T09:44:19;28.83;;;25.80;;
26690;SDS011;14307;51.718;8.938;2023-09-30T09:46:51;29.70;;;24.35;;
26690;SDS011;14307;51.718;8.938;2023-09-30T09:49:18;28.52;;;25.00;;
26690;SDS011;14307;51.718;8.938;2023-09-30T09:51:46;27.60;;;24.23;;
26690;SDS011;14307;51.718;8.938;2023-09-30T09:54:15;28.40;;;23.85;;
26690;SDS011;14307;51.718;8.938;2023-09-30T09:56:44;29.23;;;23.30;;
26690;SDS011;14307;51.718;8.938;2023-09-30T09:59:11;29.63;;;25.35;;
26690;SDS011;14307;51.718;8.938;2023-09-30T10:01:40;29.33;;;24.42;;
26690;SDS011;14307;51.718;8.938;2023-09-30T10:04:10;26.77;;;24.30;;
26690;SDS011;14307;51.718;8.938;2023-09-30T10:06:37;26.35;;;23.58;;
26690;SDS011;14307;51.718;8.938;2023-09-30T10:09:07;26.20;;;23.77;;
26690;SDS011;14307;51.718;8.938;2023-09-30T10:11:38;29.38;;;24.63;;
26690;SDS011;14307;51.718;8.938;2023-09-30T10:14:06;28.73;;;23.95;;
26690;SDS011;14307;51.718;8.938;2023-09-30T10:19:12;27.08;;;24.23;;
26690;SDS011;14307;51.718;8.938;2023-09-30T10:22:19;25.77;;;23.10;;
26690;SDS011;14307;51.718;8.938;2023-09-30T10:24:42;28.95;;;23.40;;
26690;SDS011;14307;51.718;8.938;2023-09-30T10:37:52;25.30;;;22.80;;
26690;SDS011;14307;51.718;8.938;2023-09-30T10:40:48;24.83;;;22.63;;
26690;SDS011;14307;51.718;8.938;2023-09-30T10:43:29;27.27;;;24.45;;
26690;SDS011;14307;51.718;8.938;2023-09-30T10:45:57;28.48;;;23.70;;
26690;SDS011;14307;51.718;8.938;2023-09-30T10:50:53;27.88;;;24.45;;
26690;SDS011;14307;51.718;8.938;2023-09-30T10:53:22;24.08;;;22.13;;
26690;SDS011;14307;51.718;8.938;2023-09-30T10:55:59;25.45;;;22.98;;
26690;SDS011;14307;51.718;8.938;2023-09-30T10:58:42;25.80;;;23.33;;
26690;SDS011;14307;51.718;8.938;2023-09-30T11:01:12;24.75;;;22.48;;
26690;SDS011;14307;51.718;8.938;2023-09-30T11:03:41;25.48;;;22.98;;
26690;SDS011;14307;51.718;8.938;2023-09-30T11:06:15;25.23;;;22.83;;
26690;SDS011;14307;51.718;8.938;2023-09-30T11:08:45;26.17;;;23.75;;
26690;SDS011;14307;51.718;8.938;2023-09-30T11:11:17;26.77;;;24.15;;
26690;SDS011;14307;51.718;8.938;2023-09-30T11:13:44;26.13;;;23.55;;
26690;SDS011;14307;51.718;8.938;2023-09-30T11:16:11;26.15;;;23.88;;
26690;SDS011;14307;51.718;8.938;2023-09-30T11:18:38;25.98;;;23.77;;
26690;SDS011;14307;51.718;8.938;2023-09-30T11:21:06;25.60;;;23.15;;
26690;SDS011;14307;51.718;8.938;2023-09-30T11:23:36;25.50;;;23.17;;
26690;SDS011;14307;51.718;8.938;2023-09-30T11:26:04;24.80;;;22.30;;
26690;SDS011;14307;51.718;8.938;2023-09-30T11:28:49;27.17;;;22.35;;
26690;SDS011;14307;51.718;8.938;2023-09-30T11:31:16;23.00;;;21.08;;
26690;SDS011;14307;51.718;8.938;2023-09-30T11:33:48;24.20;;;22.05;;
26690;SDS011;14307;51.718;8.938;2023-09-30T11:36:18;25.20;;;22.73;;
26690;SDS011;14307;51.718;8.938;2023-09-30T11:38:49;25.60;;;23.50;;
26690;SDS011;14307;51.718;8.938;2023-09-30T11:41:18;26.63;;;24.13;;
26690;SDS011;14307;51.718;8.938;2023-09-30T11:44:01;25.02;;;22.90;;
26690;SDS011;14307;51.718;8.938;2023-09-30T11:46:56;25.30;;;23.13;;
26690;SDS011;14307;51.718;8.938;2023-09-30T11:51:57;24.83;;;22.60;;
26690;SDS011;14307;51.718;8.938;2023-09-30T11:54:46;24.52;;;22.42;;
26690;SDS011;14307;51.718;8.938;2023-09-30T11:57:16;24.52;;;22.30;;
26690;SDS011;14307;51.718;8.938;2023-09-30T11:59:45;25.05;;;22.85;;
26690;SDS011;14307;51.718;8.938;2023-09-30T12:02:13;25.88;;;23.67;;
26690;SDS011;14307;51.718;8.938;2023-09-30T12:04:42;26.15;;;23.48;;
26690;SDS011;14307;51.718;8.938;2023-09-30T12:07:11;26.52;;;23.95;;
26690;SDS011;14307;51.718;8.938;2023-09-30T12:09:39;26.17;;;23.70;;
26690;SDS011;14307;51.718;8.938;2023-09-30T12:12:07;25.38;;;23.20;;
26690;SDS011;14307;51.718;8.938;2023-09-30T12:14:39;26.33;;;23.88;;
26690;SDS011;14307;51.718;8.938;2023-09-30T12:17:06;25.70;;;23.58;;
26690;SDS011;14307;51.718;8.938;2023-09-30T12:19:39;26.35;;;23.98;;
26690;SDS011;14307;51.718;8.938;2023-09-30T12:22:08;26.40;;;23.90;;
26690;SDS011;14307;51.718;8.938;2023-09-30T12:24:37;26.90;;;24.27;;
26690;SDS011;14307;51.718;8.938;2023-09-30T12:27:04;25.25;;;23.17;;
26690;SDS011;14307;51.718;8.938;2023-09-30T12:29:30;25.67;;;23.60;;
26690;SDS011;14307;51.718;8.938;2023-09-30T12:31:58;26.27;;;23.70;;
26690;SDS011;14307;51.718;8.938;2023-09-30T12:34:25;26.35;;;23.85;;
26690;SDS011;14307;51.718;8.938;2023-09-30T12:36:53;26.02;;;23.75;;
26690;SDS011;14307;51.718;8.938;2023-09-30T12:39:22;25.60;;;23.60;;
26690;SDS011;14307;51.718;8.938;2023-09-30T12:41:51;24.55;;;22.60;;
26690;SDS011;14307;51.718;8.938;2023-09-30T12:44:18;25.52;;;23.42;;
26690;SDS011;14307;51.718;8.938;2023-09-30T12:46:46;25.90;;;23.80;;
26690;SDS011;14307;51.718;8.938;2023-09-30T12:49:13;25.38;;;23.38;;
26690;SDS011;14307;51.718;8.938;2023-09-30T12:51:40;25.50;;;23.33;;
26690;SDS011;14307;51.718;8.938;2023-09-30T12:54:07;25.83;;;23.75;;
26690;SDS011;14307;51.718;8.938;2023-09-30T12:56:35;26.60;;;24.40;;
26690;SDS011;14307;51.718;8.938;2023-09-30T12:59:02;25.60;;;23.25;;
26690;SDS011;14307;51.718;8.938;2023-09-30T13:01:29;25.80;;;23.60;;
26690;SDS011;14307;51.718;8.938;2023-09-30T13:04:02;26.50;;;24.13;;
26690;SDS011;14307;51.718;8.938;2023-09-30T13:06:29;26.52;;;23.92;;
26690;SDS011;14307;51.718;8.938;2023-09-30T13:08:59;26.40;;;24.20;;
26690;SDS011;14307;51.718;8.938;2023-09-30T13:11:26;25.85;;;23.42;;
26690;SDS011;14307;51.718;8.938;2023-09-30T13:13:54;26.55;;;24.33;;
26690;SDS011;14307;51.718;8.938;2023-09-30T13:16:20;27.55;;;25.27;;
26690;SDS011;14307;51.718;8.938;2023-09-30T13:18:53;27.23;;;24.85;;
26690;SDS011;14307;51.718;8.938;2023-09-30T13:21:20;25.50;;;23.40;;
26690;SDS011;14307;51.718;8.938;2023-09-30T13:23:47;25.08;;;23.08;;
26690;SDS011;14307;51.718;8.938;2023-09-30T13:26:14;26.33;;;24.05;;
26690;SDS011;14307;51.718;8.938;2023-09-30T13:28:41;24.90;;;22.80;;
26690;SDS011;14307;51.718;8.938;2023-09-30T13:31:08;25.65;;;23.77;;
26690;SDS011;14307;51.718;8.938;2023-09-30T13:33:36;25.80;;;23.67;;
26690;SDS011;14307;51.718;8.938;2023-09-30T13:36:03;26.10;;;23.88;;
26690;SDS011;14307;51.718;8.938;2023-09-30T13:42:44;31.98;;;28.90;;
26690;SDS011;14307;51.718;8.938;2023-09-30T13:45:11;25.83;;;23.63;;
26690;SDS011;14307;51.718;8.938;2023-09-30T13:47:38;26.73;;;24.38;;
26690;SDS011;14307;51.718;8.938;2023-09-30T13:50:05;26.02;;;23.83;;
26690;SDS011;14307;51.718;8.938;2023-09-30T13:52:35;27.90;;;25.23;;
26690;SDS011;14307;51.718;8.938;2023-09-30T13:55:03;27.75;;;25.58;;
26690;SDS011;14307;51.718;8.938;2023-09-30T13:57:33;26.48;;;24.33;;
26690;SDS011;14307;51.718;8.938;2023-09-30T14:00:02;26.77;;;24.48;;
26690;SDS011;14307;51.718;8.938;2023-09-30T14:02:38;26.45;;;24.23;;
26690;SDS011;14307;51.718;8.938;2023-09-30T14:05:06;25.85;;;23.90;;
26690;SDS011;14307;51.718;8.938;2023-09-30T14:07:35;25.95;;;23.95;;
26690;SDS011;14307;51.718;8.938;2023-09-30T14:10:03;25.40;;;23.17;;
26690;SDS011;14307;51.718;8.938;2023-09-30T14:12:36;25.25;;;23.38;;
26690;SDS011;14307;51.718;8.938;2023-09-30T14:15:06;26.00;;;23.67;;
26690;SDS011;14307;51.718;8.938;2023-09-30T14:17:33;25.55;;;23.42;;
26690;SDS011;14307;51.718;8.938;2023-09-30T14:20:02;24.58;;;22.85;;
26690;SDS011;14307;51.718;8.938;2023-09-30T14:22:33;24.38;;;22.33;;
26690;SDS011;14307;51.718;8.938;2023-09-30T14:25:00;25.00;;;22.90;;
26690;SDS011;14307;51.718;8.938;2023-09-30T14:27:29;24.85;;;22.60;;
26690;SDS011;14307;51.718;8.938;2023-09-30T14:29:56;24.67;;;22.60;;
26690;SDS011;14307;51.718;8.938;2023-09-30T14:32:24;24.88;;;22.73;;
26690;SDS011;14307;51.718;8.938;2023-09-30T14:34:51;24.48;;;22.35;;
26690;SDS011;14307;51.718;8.938;2023-09-30T14:37:18;24.63;;;22.77;;
26690;SDS011;14307;51.718;8.938;2023-09-30T14:39:45;24.65;;;22.67;;
26690;SDS011;14307;51.718;8.938;2023-09-30T14:42:12;24.55;;;22.65;;
26690;SDS011;14307;51.718;8.938;2023-09-30T14:44:39;25.33;;;22.98;;
26690;SDS011;14307;51.718;8.938;2023-09-30T14:47:09;25.17;;;23.15;;
26690;SDS011;14307;51.718;8.938;2023-09-30T14:49:35;23.65;;;21.85;;
26690;SDS011;14307;51.718;8.938;2023-09-30T14:52:02;24.95;;;22.48;;
26690;SDS011;14307;51.718;8.938;2023-09-30T14:54:31;25.17;;;22.85;;
26690;SDS011;14307;51.718;8.938;2023-09-30T14:56:58;25.83;;;23.17;;